Time;durP1;ratioP1;P1;durP2;ratioP2;P2;SDS_P1;SDS_P2;PMS_P1;PMS_P2;Temp;Humidity;BMP_temperature;BMP_pressure;BME280_temperature;BME280_humidity;BME280_pressure;Samples;Min_cycle;Max_cycle;Signal;HPM_P1;HPM_P2
2021/04/23 00:00:20;;;;;;;12.10;7.50;;;-0.10;99.90;;;-0.22;100.00;95686.00;2189771;57;25173;-64
2021/04/23 00:03:24;;;;;;;13.43;8.70;;;-0.10;99.90;;;-0.31;100.00;95688.00;2191926;57;26118;-64
2021/04/23 00:06:18;;;;;;;12.77;7.77;;;-0.30;99.90;;;-0.43;100.00;95683.00;2191809;57;25596;-64
2021/04/23 00:09:14;;;;;;;9.80;7.47;;;-0.30;99.90;;;-0.46;100.00;95684.00;2405192;57;26950;-64
2021/04/23 00:12:05;;;;;;;12.10;7.57;;;-0.50;99.90;;;-0.60;100.00;95684.00;2191969;57;26182;-65
2021/04/23 00:14:52;;;;;;;11.57;7.07;;;-0.30;99.90;;;-0.48;100.00;95681.00;2405012;57;26143;-65
2021/04/23 00:17:40;;;;;;;13.23;7.63;;;-0.40;99.90;;;-0.55;100.00;95680.00;2191687;57;26230;-65
2021/04/23 00:20:29;;;;;;;8.97;6.60;;;-0.40;99.90;;;-0.54;100.00;95671.00;2405250;57;25050;-65
2021/04/23 00:23:15;;;;;;;9.60;6.57;;;-0.40;99.90;;;-0.55;100.00;95675.00;2191730;57;25141;-65
2021/04/23 00:26:03;;;;;;;13.57;7.63;;;-0.30;99.90;;;-0.41;100.00;95669.00;2405513;57;26162;-65
2021/04/23 00:28:50;;;;;;;12.47;7.53;;;-0.40;99.90;;;-0.58;100.00;95676.00;2191426;57;26609;-65
2021/04/23 00:31:36;;;;;;;10.43;7.53;;;-0.50;99.90;;;-0.64;100.00;95680.00;2405509;57;26640;-65
2021/04/23 00:34:23;;;;;;;12.40;7.47;;;-0.50;99.90;;;-0.67;100.00;95676.00;2191392;57;26155;-63
2021/04/23 00:37:10;;;;;;;11.97;8.30;;;-0.60;99.90;;;-0.74;100.00;95669.00;2405586;57;26568;-64
2021/04/23 00:39:56;;;;;;;14.17;7.27;;;-0.50;99.90;;;-0.72;100.00;95672.00;2191621;57;26125;-64
2021/04/23 00:42:43;;;;;;;12.73;7.50;;;-0.60;99.90;;;-0.74;100.00;95672.00;2404375;57;26580;-63
2021/04/23 00:45:31;;;;;;;11.33;7.40;;;-0.50;99.90;;;-0.62;100.00;95668.00;2189996;57;26706;-63
2021/04/23 00:48:18;;;;;;;9.93;7.00;;;-0.70;99.90;;;-0.78;100.00;95670.00;2405440;57;26217;-63
2021/04/23 00:51:09;;;;;;;9.93;6.60;;;-0.60;99.90;;;-0.78;100.00;95675.00;2191635;57;26139;-63
2021/04/23 00:53:57;;;;;;;11.23;7.50;;;-0.70;99.90;;;-0.76;100.00;95673.00;2405493;57;26647;-63
2021/04/23 00:56:44;;;;;;;9.93;7.17;;;-0.70;99.90;;;-0.90;100.00;95672.00;2192030;57;26126;-64
2021/04/23 00:59:30;;;;;;;10.70;7.10;;;-0.70;99.90;;;-0.90;100.00;95671.00;2191248;57;26527;-63
2021/04/23 01:02:17;;;;;;;11.87;7.40;;;-0.70;99.90;;;-0.97;100.00;95669.00;2405409;57;26145;-62
2021/04/23 01:05:05;;;;;;;10.60;7.43;;;-0.80;99.90;;;-1.04;100.00;95668.00;2191510;57;26121;-63
2021/04/23 01:07:52;;;;;;;11.17;7.17;;;-0.90;99.90;;;-1.03;100.00;95670.00;2405574;57;26572;-63
2021/04/23 01:10:38;;;;;;;9.90;6.93;;;-0.80;99.90;;;-0.98;100.00;95674.00;2191618;57;26118;-63
2021/04/23 01:13:30;;;;;;;12.90;7.63;;;-0.80;99.90;;;-1.05;100.00;95672.00;2404829;57;26118;-64
2021/04/23 01:16:19;;;;;;;11.87;7.40;;;-0.90;99.90;;;-1.07;100.00;95677.00;2191181;57;26186;-65
2021/04/23 01:19:09;;;;;;;10.20;7.43;;;-0.90;99.90;;;-1.02;100.00;95675.00;2406141;57;26641;-63
2021/04/23 01:21:55;;;;;;;13.23;7.80;;;-0.80;99.90;;;-1.01;100.00;95671.00;2191960;57;26137;-64
2021/04/23 01:24:44;;;;;;;12.03;7.53;;;-0.90;99.90;;;-1.01;100.00;95678.00;2405441;57;26626;-64
2021/04/23 01:27:30;;;;;;;12.17;7.57;;;-0.90;99.90;;;-1.01;100.00;95676.00;2192152;57;26110;-64
2021/04/23 01:30:22;;;;;;;10.77;7.80;;;-1.00;99.90;;;-1.08;100.00;95683.00;2404844;57;26106;-64
2021/04/23 01:33:08;;;;;;;12.60;7.60;;;-0.80;99.90;;;-1.03;100.00;95690.00;2405576;57;26106;-64
2021/04/23 01:35:55;;;;;;;10.87;7.33;;;-0.90;99.90;;;-1.04;100.00;95690.00;2191960;57;26094;-64
2021/04/23 01:38:45;;;;;;;9.77;7.00;;;-0.90;99.90;;;-1.03;100.00;95689.00;2191836;57;26102;-63
2021/04/23 01:41:31;;;;;;;10.03;7.20;;;-0.90;99.90;;;-1.00;100.00;95691.00;2191778;57;26118;-63
2021/04/23 01:44:19;;;;;;;10.80;7.30;;;-0.90;99.90;;;-1.00;100.00;95699.00;2191280;57;26149;-63
2021/04/23 01:47:07;;;;;;;11.50;6.77;;;-0.90;99.90;;;-1.05;100.00;95697.00;2406014;57;25488;-63
2021/04/23 01:49:54;;;;;;;9.17;6.63;;;-0.90;99.90;;;-0.99;100.00;95700.00;2191603;57;26210;-64
2021/04/23 01:52:40;;;;;;;10.20;7.03;;;-0.80;99.90;;;-1.00;100.00;95696.00;2405623;57;26179;-64
2021/04/23 01:55:27;;;;;;;10.07;6.47;;;-1.00;99.90;;;-1.13;100.00;95690.00;2191684;57;26090;-64
2021/04/23 01:58:14;;;;;;;11.37;6.80;;;-0.90;99.90;;;-1.03;100.00;95699.00;2405395;57;27086;-64
2021/04/23 02:01:01;;;;;;;11.67;7.27;;;-1.00;99.90;;;-1.05;100.00;95706.00;2191984;57;26114;-64
2021/04/23 02:03:48;;;;;;;15.60;7.53;;;-1.00;99.90;;;-0.98;100.00;95710.00;2405945;57;26110;-64
2021/04/23 02:06:35;;;;;;;11.20;7.33;;;-1.00;99.90;;;-0.98;100.00;95704.00;2191569;57;26178;-64
2021/04/23 02:09:22;;;;;;;11.20;6.93;;;-1.00;99.90;;;-0.96;100.00;95702.00;2405309;57;26126;-64
2021/04/23 02:12:10;;;;;;;10.37;6.87;;;-0.80;99.90;;;-0.91;100.00;95703.00;2192099;57;26531;-64
2021/04/23 02:14:57;;;;;;;12.93;6.97;;;-0.90;99.90;;;-0.95;100.00;95704.00;2191337;57;26169;-64
2021/04/23 02:17:44;;;;;;;11.67;7.50;;;-0.90;99.90;;;-0.94;100.00;95705.00;2405752;57;26099;-64
2021/04/23 02:20:34;;;;;;;10.53;7.20;;;-0.90;99.90;;;-0.92;100.00;95704.00;2191502;57;25549;-64
2021/04/23 02:23:21;;;;;;;10.80;6.87;;;-0.80;99.90;;;-0.80;100.00;95698.00;2191626;57;26160;-64
2021/04/23 02:26:08;;;;;;;10.97;7.63;;;-0.80;99.90;;;-0.90;100.00;95705.00;2192055;57;26098;-64
2021/04/23 02:28:54;;;;;;;11.67;7.40;;;-0.90;99.90;;;-1.03;100.00;95707.00;2405228;57;26586;-64
2021/04/23 02:31:46;;;;;;;10.97;7.47;;;-0.90;99.90;;;-1.06;100.00;95699.00;2191937;57;26595;-64
2021/04/23 02:34:33;;;;;;;12.30;7.50;;;-0.90;99.90;;;-1.00;100.00;95695.00;2191579;57;26194;-65
2021/04/23 02:37:19;;;;;;;17.73;8.17;;;-0.90;99.90;;;-1.03;100.00;95701.00;2191720;57;26158;-64
2021/04/23 02:40:11;;;;;;;15.97;8.50;;;-1.00;99.90;;;-1.02;100.00;95703.00;2405383;57;26531;-65
2021/04/23 02:43:03;;;;;;;26.90;9.57;;;-0.80;99.90;;;-0.71;100.00;95705.00;2405318;57;26559;-64
2021/04/23 02:45:52;;;;;;;24.90;10.13;;;-0.70;99.90;;;-0.52;100.00;95699.00;2404477;57;26107;-65
2021/04/23 02:48:42;;;;;;;29.43;10.47;;;-0.80;99.90;;;-0.77;100.00;95698.00;2190707;57;26198;-64
2021/04/23 02:51:35;;;;;;;27.30;10.97;;;-0.80;99.90;;;-0.78;100.00;95699.00;2191701;57;26588;-64
2021/04/23 02:54:22;;;;;;;29.30;10.97;;;-0.90;99.90;;;-0.97;100.00;95703.00;2404992;57;25722;-64
2021/04/23 02:57:09;;;;;;;25.50;11.17;;;-1.00;99.90;;;-0.94;100.00;95709.00;2190534;57;26217;-64
2021/04/23 02:59:55;;;;;;;25.73;11.90;;;-1.00;99.90;;;-0.98;100.00;95715.00;2189904;57;26709;-63
2021/04/23 03:02:42;;;;;;;25.97;11.80;;;-1.00;99.90;;;-1.08;100.00;95708.00;2190440;57;26267;-63
2021/04/23 03:05:29;;;;;;;30.90;13.03;;;-0.90;99.90;;;-0.81;100.00;95720.00;2190501;57;26453;-62
2021/04/23 03:08:16;;;;;;;25.43;12.37;;;-0.90;99.90;;;-0.98;100.00;95710.00;2190571;57;26267;-63
2021/04/23 03:11:11;;;;;;;23.63;11.67;;;-0.90;99.90;;;-0.98;100.00;95719.00;2191947;57;26101;-63
2021/04/23 03:14:00;;;;;;;29.00;12.73;;;-0.80;99.90;;;-0.88;100.00;95706.00;2191399;57;26090;-63
2021/04/23 03:16:46;;;;;;;37.90;13.77;;;-1.10;99.90;;;-1.03;100.00;95714.00;2405727;57;26169;-63
2021/04/23 03:19:33;;;;;;;37.90;13.10;;;-1.10;99.90;;;-1.02;100.00;95713.00;2405590;57;26102;-63
2021/04/23 03:22:19;;;;;;;30.83;12.67;;;-1.20;99.90;;;-1.01;100.00;95715.00;2191686;57;26217;-63
2021/04/23 03:25:09;;;;;;;30.23;12.63;;;-1.10;99.90;;;-1.07;100.00;95710.00;2405401;57;26520;-63
2021/04/23 03:27:55;;;;;;;29.03;11.97;;;-1.20;99.90;;;-1.17;100.00;95719.00;2192063;57;26102;-63
2021/04/23 03:30:44;;;;;;;19.77;11.53;;;-1.30;99.90;;;-1.25;100.00;95724.00;2404887;57;25168;-63
2021/04/23 03:33:32;;;;;;;25.33;12.00;;;-1.20;99.90;;;-1.18;100.00;95731.00;2191453;57;26515;-62
2021/04/23 03:36:19;;;;;;;20.87;11.97;;;-1.20;99.90;;;-1.15;100.00;95720.00;2405372;57;26476;-63
2021/04/23 03:39:08;;;;;;;23.50;12.77;;;-1.20;99.90;;;-1.15;100.00;95726.00;2191684;57;26173;-63
2021/04/23 03:41:55;;;;;;;32.30;13.47;;;-1.20;99.90;;;-1.22;100.00;95727.00;2405531;57;26098;-63
2021/04/23 03:44:41;;;;;;;28.67;13.53;;;-1.20;99.90;;;-1.22;100.00;95734.00;2191719;57;26243;-63
2021/04/23 03:47:27;;;;;;;27.33;13.27;;;-1.40;99.90;;;-1.30;100.00;95732.00;2405477;57;26611;-63
2021/04/23 03:50:20;;;;;;;24.93;13.13;;;-1.30;99.90;;;-1.27;100.00;95737.00;2190133;57;26249;-62
2021/04/23 03:53:12;;;;;;;25.10;12.80;;;-1.40;99.90;;;-1.31;100.00;95738.00;2405956;57;26511;-62
2021/04/23 03:55:59;;;;;;;36.67;13.20;;;-1.40;99.90;;;-1.29;100.00;95746.00;2406263;57;26222;-62
2021/04/23 03:58:47;;;;;;;66.00;15.20;;;-1.30;99.90;;;-1.15;100.00;95744.00;2191912;57;25698;-63
2021/04/23 04:01:34;;;;;;;87.47;15.70;;;-1.30;99.90;;;-1.30;100.00;95744.00;2191942;57;26109;-63
2021/04/23 04:04:20;;;;;;;99.67;17.43;;;-1.40;99.90;;;-1.40;100.00;95749.00;2405117;57;25582;-63
2021/04/23 04:07:07;;;;;;;53.53;13.80;;;-1.30;99.90;;;-1.09;100.00;95751.00;2191582;57;26616;-62
2021/04/23 04:09:53;;;;;;;44.67;14.37;;;-1.20;99.90;;;-1.09;100.00;95751.00;2405324;57;26169;-63
2021/04/23 04:12:40;;;;;;;29.33;14.20;;;-1.30;99.90;;;-1.25;100.00;95751.00;2191816;57;26149;-62
2021/04/23 04:15:28;;;;;;;31.73;15.07;;;-1.40;99.90;;;-1.43;100.00;95756.00;2404608;57;25553;-63
2021/04/23 04:18:16;;;;;;;43.70;14.80;;;-1.40;99.90;;;-1.49;100.00;95751.00;2191994;57;26094;-62
2021/04/23 04:21:03;;;;;;;29.30;14.40;;;-1.50;99.90;;;-1.44;100.00;95760.00;2405693;57;26618;-62
2021/04/23 04:23:49;;;;;;;21.87;13.40;;;-1.60;99.90;;;-1.56;100.00;95756.00;2192041;57;26102;-62
2021/04/23 04:26:36;;;;;;;18.27;11.93;;;-1.50;99.90;;;-1.59;100.00;95753.00;2405329;57;26654;-63
2021/04/23 04:29:22;;;;;;;16.63;10.67;;;-1.50;99.90;;;-1.55;100.00;95765.00;2190913;57;25497;-63
2021/04/23 04:32:08;;;;;;;17.67;12.03;;;-1.50;99.90;;;-1.48;100.00;95767.00;2191631;57;26622;-62
2021/04/23 04:34:55;;;;;;;17.97;12.27;;;-1.40;99.90;;;-1.42;100.00;95766.00;2405167;57;26151;-63
2021/04/23 04:37:42;;;;;;;18.33;11.83;;;-1.50;99.90;;;-1.43;100.00;95766.00;2191438;57;25159;-63
2021/04/23 04:40:29;;;;;;;18.33;11.97;;;-1.40;99.90;;;-1.34;100.00;95764.00;2404861;57;26210;-63
2021/04/23 04:43:18;;;;;;;17.47;11.37;;;-1.40;99.90;;;-1.32;100.00;95769.00;2191690;57;26178;-62
2021/04/23 04:46:04;;;;;;;14.23;10.53;;;-1.40;99.90;;;-1.18;100.00;95773.00;2405672;57;26547;-62
2021/04/23 04:48:51;;;;;;;16.17;11.13;;;-1.30;99.90;;;-1.05;100.00;95775.00;2190762;57;26225;-61
2021/04/23 04:51:37;;;;;;;17.27;11.67;;;-1.10;99.90;;;-0.70;100.00;95779.00;2190503;57;26153;-62
2021/04/23 04:54:25;;;;;;;18.67;12.43;;;-1.00;99.90;;;-0.60;100.00;95777.00;2190756;57;26610;-62
2021/04/23 04:57:11;;;;;;;17.37;11.93;;;-1.10;99.90;;;-0.66;100.00;95778.00;2190647;57;26198;-64
2021/04/23 04:59:58;;;;;;;15.37;11.13;;;-0.90;99.90;;;-0.48;100.00;95778.00;2190538;57;25567;-63
2021/04/23 05:02:44;;;;;;;16.67;10.73;;;-1.00;99.90;;;-0.57;100.00;95780.00;2191684;57;26204;-63
2021/04/23 05:05:31;;;;;;;13.90;10.10;;;-1.00;99.90;;;-0.51;100.00;95781.00;2405198;57;25476;-65
2021/04/23 05:08:18;;;;;;;15.10;10.37;;;-0.70;99.90;;;-0.01;100.00;95779.00;2191794;57;26217;-62
2021/04/23 05:11:05;;;;;;;12.20;9.90;;;-0.40;99.90;;;0.17;100.00;95770.00;2405730;57;26559;-62
2021/04/23 05:13:51;;;;;;;13.27;10.30;;;-0.20;99.90;;;0.50;100.00;95771.00;2191429;57;26578;-63
2021/04/23 05:16:37;;;;;;;15.07;10.27;;;-0.40;99.90;;;0.31;100.00;95767.00;2405827;57;26563;-62
2021/04/23 05:19:23;;;;;;;13.53;10.10;;;-0.40;99.90;;;0.25;100.00;95770.00;2191515;57;26114;-63
2021/04/23 05:22:10;;;;;;;12.43;9.70;;;-0.40;99.90;;;0.21;100.00;95776.00;2191492;57;26641;-63
2021/04/23 05:24:56;;;;;;;16.93;10.03;;;-0.30;99.90;;;0.33;100.00;95773.00;2405565;57;26516;-62
2021/04/23 05:27:43;;;;;;;14.03;10.27;;;-0.10;99.90;;;1.20;100.00;95776.00;2191821;57;25187;-63
2021/04/23 05:30:31;;;;;;;15.00;10.27;;;1.50;99.90;;;3.99;100.00;95762.00;2404484;57;26134;-62
2021/04/23 05:33:18;;;;;;;13.27;7.80;;;3.20;99.90;;;7.15;100.00;95753.00;2191956;57;26111;-62
2021/04/23 05:36:06;;;;;;;14.23;7.53;;;3.90;99.90;;;8.86;100.00;95749.00;2405705;57;26629;-63
2021/04/23 05:38:52;;;;;;;10.30;6.50;;;4.60;99.90;;;10.42;100.00;95753.00;2192103;57;26110;-62
2021/04/23 05:41:39;;;;;;;12.10;6.93;;;4.10;99.90;;;10.05;100.00;95748.00;2405995;57;26583;-62
2021/04/23 05:44:25;;;;;;;13.10;6.70;;;4.70;99.90;;;9.67;100.00;95760.00;2191368;57;26516;-63
2021/04/23 05:47:12;;;;;;;9.00;6.93;;;5.60;99.90;;;11.43;100.00;95759.00;2192087;57;26165;-63
2021/04/23 05:49:59;;;;;;;10.63;6.27;;;5.00;99.90;;;10.68;100.00;95755.00;2405647;57;26102;-63
2021/04/23 05:52:47;;;;;;;8.33;5.97;;;6.10;99.90;;;13.08;90.69;95762.00;2192071;57;26149;-63
2021/04/23 05:55:35;;;;;;;11.07;6.50;;;5.70;99.90;;;11.22;95.04;95757.00;2405559;57;26098;-63
2021/04/23 05:58:21;;;;;;;11.20;7.23;;;5.60;99.90;;;12.65;88.89;95753.00;2191713;57;26134;-63
2021/04/23 06:01:07;;;;;;;10.20;6.20;;;5.70;99.90;;;10.92;95.36;95760.00;2405616;57;26599;-63
2021/04/23 06:03:54;;;;;;;7.03;6.00;;;5.50;99.90;;;10.99;100.00;95758.00;2191695;57;26666;-63
2021/04/23 06:06:40;;;;;;;9.90;7.10;;;5.40;99.90;;;11.25;98.78;95757.00;2405683;57;26159;-62
2021/04/23 06:09:26;;;;;;;10.10;7.20;;;6.10;99.90;;;11.76;97.84;95753.00;2191736;57;26648;-63
2021/04/23 06:12:13;;;;;;;9.87;7.17;;;5.80;99.90;;;11.82;100.00;95759.00;2405625;57;26560;-63
2021/04/23 06:14:59;;;;;;;8.97;6.53;;;6.50;99.90;;;11.45;99.80;95762.00;2405441;57;26110;-63
2021/04/23 06:17:46;;;;;;;14.33;7.07;;;6.10;99.90;;;11.37;100.00;95761.00;2192075;57;26211;-63
2021/04/23 06:20:35;;;;;;;9.53;7.20;;;6.50;99.90;;;11.76;100.00;95759.00;2405236;57;26614;-62
2021/04/23 06:23:21;;;;;;;10.77;6.57;;;6.60;99.90;;;12.27;100.00;95766.00;2192029;57;26559;-63
2021/04/23 06:26:08;;;;;;;9.70;6.80;;;6.90;99.90;;;12.65;100.00;95763.00;2405693;57;26134;-63
2021/04/23 06:28:54;;;;;;;9.67;6.70;;;8.70;99.90;;;15.61;84.61;95766.00;2191472;57;26170;-63
2021/04/23 06:31:41;;;;;;;7.57;5.93;;;8.10;99.90;;;13.28;91.94;95770.00;2405871;57;26328;-63
2021/04/23 06:34:27;;;;;;;8.63;6.73;;;7.80;99.90;;;12.77;100.00;95767.00;2191608;57;26595;-64
2021/04/23 06:37:14;;;;;;;11.27;6.83;;;8.00;99.90;;;13.04;100.00;95770.00;2405646;57;26117;-64
2021/04/23 06:40:00;;;;;;;8.73;6.73;;;7.90;99.90;;;13.76;100.00;95770.00;2192092;57;26611;-64
2021/04/23 06:42:46;;;;;;;8.73;6.93;;;8.00;99.90;;;13.66;97.02;95773.00;2191990;57;26658;-64
2021/04/23 06:45:33;;;;;;;8.00;6.40;;;10.90;99.90;;;17.24;74.31;95763.00;2405064;57;26143;-63
2021/04/23 06:48:20;;;;;;;9.83;6.43;;;11.10;99.90;;;16.52;76.33;95764.00;2191947;57;26264;-64
2021/04/23 06:51:07;;;;;;;8.73;6.37;;;12.40;99.90;;;17.64;64.26;95769.00;2405325;57;26187;-64
2021/04/23 06:53:54;;;;;;;9.77;7.03;;;14.30;99.90;;;18.50;59.23;95763.00;2191977;57;26634;-63
2021/04/23 06:56:40;;;;;;;8.63;6.80;;;11.60;99.90;;;16.51;69.85;95764.00;2406002;57;26530;-64
2021/04/23 06:59:26;;;;;;;10.37;7.23;;;10.60;99.90;;;16.14;80.38;95769.00;2191241;57;26138;-63
2021/04/23 07:02:12;;;;;;;8.40;7.37;;;11.90;99.90;;;16.88;65.52;95764.00;2405600;57;26579;-63
2021/04/23 07:05:00;;;;;;;9.97;7.70;;;11.40;99.90;;;17.60;66.51;95776.00;2191857;57;26165;-63
2021/04/23 07:07:47;;;;;;;11.07;6.90;;;11.10;99.90;;;17.36;66.12;95775.00;2191408;57;26590;-64
2021/04/23 07:10:34;;;;;;;11.30;7.47;;;11.60;99.90;;;17.56;56.86;95772.00;2405261;57;26753;-61
2021/04/23 07:13:20;;;;;;;9.15;6.60;;;11.70;99.90;;;17.16;66.51;95774.00;2191981;57;26201;-61
2021/04/23 07:16:07;;;;;;;8.88;7.45;;;12.70;99.90;;;18.62;55.79;95772.00;2405662;57;26562;-61
2021/04/23 07:18:53;;;;;;;9.40;7.70;;;12.30;99.90;;;18.36;60.08;95777.00;2192121;57;26496;-61
2021/04/23 07:21:40;;;;;;;8.27;7.00;;;12.20;99.90;;;18.51;60.66;95774.00;2405369;57;26638;-61
2021/04/23 07:24:26;;;;;;;9.48;7.75;;;12.90;99.90;;;17.81;57.28;95783.00;2191685;57;26114;-62
2021/04/23 07:27:13;;;;;;;9.83;8.07;;;11.30;99.90;;;16.49;65.45;95786.00;2405913;57;26592;-62
2021/04/23 07:29:59;;;;;;;10.85;8.02;;;11.00;99.90;;;15.89;78.48;95782.00;2191299;57;26142;-62
2021/04/23 07:32:46;;;;;;;11.48;8.23;;;11.40;99.90;;;17.43;69.46;95779.00;2191812;57;26122;-61
2021/04/23 07:35:32;;;;;;;9.75;7.72;;;12.20;99.90;;;17.52;62.93;95782.00;2405562;57;26102;-62
2021/04/23 07:38:19;;;;;;;12.37;7.97;;;11.50;99.90;;;16.32;69.09;95787.00;2191854;57;26174;-61
2021/04/23 07:41:05;;;;;;;10.88;7.40;;;11.40;99.90;;;16.59;64.77;95779.00;2405477;57;26205;-62
2021/04/23 07:43:51;;;;;;;8.88;7.60;;;14.80;99.90;;;20.64;47.89;95779.00;2191551;57;26125;-61
2021/04/23 07:46:38;;;;;;;9.98;7.20;;;15.50;99.90;;;19.36;46.32;95785.00;2405854;57;26162;-62
2021/04/23 07:49:24;;;;;;;11.98;7.70;;;14.80;99.90;;;20.48;45.72;95785.00;2191357;57;26198;-62
2021/04/23 07:52:10;;;;;;;10.18;7.43;;;14.80;99.90;;;20.18;45.96;95790.00;2405628;57;26587;-62
2021/04/23 07:54:57;;;;;;;14.45;7.78;;;14.90;99.90;;;20.57;48.47;95795.00;2405656;57;26603;-62
2021/04/23 07:57:43;;;;;;;11.27;7.37;;;14.80;99.90;;;19.42;49.91;95785.00;1901361;57;19154687;-61
2021/04/23 08:00:30;;;;;;;9.70;6.80;;;14.80;99.90;;;20.72;48.31;95781.00;2404872;57;26226;-62
2021/04/23 08:03:16;;;;;;;12.23;6.80;;;15.10;99.90;;;20.71;43.92;95784.00;2191970;57;26174;-62
2021/04/23 08:06:03;;;;;;;9.75;6.68;;;13.70;99.90;;;17.50;49.89;95773.00;2405270;57;26162;-62
2021/04/23 08:08:50;;;;;;;10.23;6.68;;;13.70;99.90;;;18.92;49.84;95783.00;2190548;57;26654;-62
2021/04/23 08:11:36;;;;;;;7.45;5.97;;;14.80;99.90;;;20.27;45.23;95780.00;2405222;57;26604;-61
2021/04/23 08:14:22;;;;;;;6.90;5.90;;;14.70;99.90;;;19.78;44.93;95783.00;2404679;57;26138;-62
2021/04/23 08:17:09;;;;;;;10.50;6.28;;;15.70;99.90;;;19.99;42.98;95786.00;2192181;57;26531;-61
2021/04/23 08:19:55;;;;;;;10.18;6.03;;;15.50;99.90;;;19.98;42.48;95784.00;2405696;57;26130;-62
2021/04/23 08:22:42;;;;;;;7.55;5.50;;;14.90;99.90;;;19.77;41.65;95785.00;2191469;57;26574;-62
2021/04/23 08:25:29;;;;;;;8.27;5.05;;;14.80;99.90;;;19.44;37.79;95793.00;2405282;57;26106;-62
2021/04/23 08:28:15;;;;;;;8.05;5.12;;;15.80;99.90;;;21.52;35.92;95788.00;2191931;57;26086;-62
2021/04/23 08:31:02;;;;;;;8.10;4.87;;;15.10;99.90;;;19.67;36.08;95779.00;2405177;57;26169;-62
2021/04/23 08:33:48;;;;;;;7.03;4.12;;;15.50;98.70;;;20.89;32.69;95785.00;2191853;57;26551;-62
2021/04/23 08:36:35;;;;;;;7.43;4.65;;;16.30;95.50;;;20.82;30.08;95786.00;2191277;57;26126;-63
2021/04/23 08:39:21;;;;;;;10.15;3.80;;;19.70;88.10;;;23.84;25.73;95788.00;2404730;57;26150;-63
2021/04/23 08:42:08;;;;;;;9.57;3.62;;;16.90;94.80;;;20.84;33.52;95795.00;2192134;57;26226;-63
2021/04/23 08:44:55;;;;;;;8.10;3.60;;;16.00;93.70;;;19.60;33.10;95788.00;2404786;57;26362;-63
2021/04/23 08:47:42;;;;;;;8.25;3.55;;;15.40;92.60;;;19.62;31.77;95787.00;2191706;57;26114;-63
2021/04/23 08:50:29;;;;;;;4.82;3.53;;;16.60;95.40;;;21.43;33.31;95784.00;2404895;57;26539;-63
2021/04/23 08:53:17;;;;;;;7.28;3.80;;;17.30;92.20;;;21.50;31.03;95788.00;2191865;57;26178;-63
2021/04/23 08:56:06;;;;;;;8.00;3.92;;;19.20;88.60;;;23.73;27.01;95777.00;2404970;57;26211;-64
2021/04/23 08:58:53;;;;;;;6.90;4.15;;;19.60;80.40;;;22.13;25.64;95786.00;2191449;57;26122;-63
2021/04/23 09:01:39;;;;;;;9.15;4.00;;;19.60;83.20;;;24.74;25.01;95778.00;2191020;57;26631;-62
2021/04/23 09:04:26;;;;;;;10.57;3.87;;;21.30;79.00;;;26.36;22.96;95773.00;2404633;57;26643;-62
2021/04/23 09:07:13;;;;;;;6.50;4.00;;;17.80;89.10;;;20.21;32.29;95781.00;2190304;57;26559;-62
2021/04/23 09:10:10;;;;;;;9.20;4.45;;;16.40;92.60;;;20.02;35.33;95777.00;2405410;57;26484;-62
2021/04/23 09:13:11;;;;;;;8.63;3.80;;;17.50;90.60;;;21.33;31.25;95784.00;2405499;57;26576;-63
2021/04/23 09:15:58;;;;;;;6.72;4.12;;;17.00;92.50;;;20.88;33.68;95783.00;2405626;57;26125;-63
2021/04/23 09:18:44;;;;;;;7.25;4.15;;;18.00;84.80;;;22.64;27.13;95782.00;2192030;57;26209;-62
2021/04/23 09:21:31;;;;;;;7.45;3.97;;;17.40;86.50;;;20.88;29.60;95775.00;2191351;57;26130;-63
2021/04/23 09:24:27;;;;;;;7.75;4.40;;;20.50;76.60;;;23.79;24.53;95778.00;2405352;57;26098;-63
2021/04/23 09:27:16;;;;;;;11.73;3.95;;;17.30;81.00;;;18.51;30.70;95782.00;2406011;57;26115;-63
2021/04/23 09:30:09;;;;;;;5.10;3.60;;;18.00;78.30;;;21.11;26.66;95783.00;2190848;57;26741;-63
2021/04/23 09:32:56;;;;;;;6.25;3.95;;;17.80;76.90;;;20.28;26.54;95777.00;2405376;57;26190;-62
2021/04/23 09:35:44;;;;;;;6.22;3.70;;;18.00;80.20;;;21.40;27.39;95773.00;2191720;57;26348;-62
2021/04/23 09:38:30;;;;;;;6.93;4.00;;;19.10;78.00;;;23.25;25.26;95771.00;2191690;57;26150;-62
2021/04/23 09:41:23;;;;;;;7.00;3.97;;;18.90;81.50;;;22.61;27.88;95774.00;2405666;57;26163;-62
2021/04/23 09:44:28;;;;;;;8.45;4.00;;;18.30;78.40;;;21.48;27.14;95782.00;2405263;57;26102;-62
2021/04/23 09:47:18;;;;;;;9.52;4.20;;;18.30;79.90;;;22.19;27.25;95771.00;2405912;57;26133;-62
2021/04/23 09:50:07;;;;;;;7.28;3.85;;;19.10;76.60;;;21.73;26.32;95769.00;2191623;57;26118;-63
2021/04/23 09:52:56;;;;;;;5.15;3.90;;;21.00;76.30;;;24.97;24.51;95756.00;2405564;57;26125;-63
2021/04/23 09:55:42;;;;;;;5.80;3.87;;;20.10;73.40;;;22.05;25.58;95772.00;2191914;57;26114;-62
2021/04/23 09:58:28;;;;;;;8.15;4.12;;;18.40;83.90;;;20.90;31.27;95765.00;2191570;57;26093;-62
2021/04/23 10:01:15;;;;;;;6.95;3.78;;;16.80;83.20;;;19.11;31.92;95771.00;2405670;57;26547;-62
2021/04/23 10:04:20;;;;;;;5.43;3.65;;;16.50;87.50;;;19.03;33.93;95769.00;2191888;57;26142;-63
2021/04/23 10:07:19;;;;;;;7.03;3.50;;;18.00;81.30;;;22.68;26.71;95759.00;2191391;57;26234;-63
2021/04/23 10:10:09;;;;;;;7.75;4.43;;;18.70;85.30;;;21.96;31.94;95766.00;2191829;57;26537;-63
2021/04/23 10:12:58;;;;;;;6.60;3.78;;;17.60;84.50;;;20.36;31.87;95761.00;2405660;57;26118;-63
2021/04/23 10:15:45;;;;;;;5.10;3.20;;;18.40;80.90;;;22.14;28.30;95749.00;2191707;57;26688;-63
2021/04/23 10:18:32;;;;;;;6.07;3.85;;;22.10;71.10;;;25.68;22.56;95753.00;2191994;57;26109;-63
2021/04/23 10:21:18;;;;;;;5.22;3.30;;;24.00;66.50;;;27.28;20.80;95752.00;2402003;57;26782;-63
2021/04/23 10:24:08;;;;;;;6.90;4.00;;;23.10;66.50;;;25.72;21.85;95754.00;2191970;57;26106;-63
2021/04/23 10:26:54;;;;;;;8.88;3.90;;;21.40;68.50;;;23.92;24.24;95746.00;2406086;57;26134;-63
2021/04/23 10:29:43;;;;;;;8.15;3.60;;;19.20;73.80;;;21.20;27.99;95753.00;2191607;57;26536;-63
2021/04/23 10:32:30;;;;;;;4.87;3.35;;;19.40;72.80;;;22.86;25.54;95754.00;2405897;57;26174;-63
2021/04/23 10:35:17;;;;;;;5.65;3.58;;;20.60;72.80;;;22.31;26.34;95742.00;2191920;57;26649;-63
2021/04/23 10:38:07;;;;;;;4.75;3.42;;;19.00;80.30;;;21.48;31.12;95753.00;2405955;57;26099;-63
2021/04/23 10:40:58;;;;;;;8.10;3.62;;;19.00;80.30;;;21.41;30.97;95749.00;2192247;57;26566;-63
2021/04/23 10:43:53;;;;;;;6.00;3.55;;;18.90;82.90;;;21.37;32.55;95748.00;2191831;57;26235;-63
2021/04/23 10:46:51;;;;;;;8.73;4.12;;;17.80;79.00;;;19.56;31.21;95745.00;2405817;57;26293;-63
2021/04/23 10:50:10;;;;;;;5.47;3.40;;;21.20;69.40;;;24.17;23.71;95737.00;2191652;57;26616;-63
2021/04/23 10:53:06;;;;;;;5.30;3.08;;;20.10;74.90;;;22.68;27.20;95741.00;2406250;57;26228;-63
2021/04/23 10:55:55;;;;;;;8.40;3.67;;;19.60;75.30;;;21.56;28.62;95742.00;2405974;57;26176;-63
2021/04/23 10:58:41;;;;;;;5.53;3.08;;;22.20;69.30;;;26.43;22.60;95737.00;2192124;57;26270;-63
2021/04/23 11:01:37;;;;;;;5.05;3.25;;;20.40;69.40;;;22.80;25.13;95736.00;2191746;57;26278;-63
2021/04/23 11:04:24;;;;;;;6.40;3.50;;;20.90;64.90;;;22.90;23.17;95738.00;2187104;57;26119;-63
2021/04/23 11:07:10;;;;;;;7.95;3.33;;;19.10;78.00;;;21.24;30.37;95740.00;2190294;57;26573;-63
2021/04/23 11:10:01;;;;;;;7.53;3.47;;;19.70;78.50;;;21.89;30.87;95732.00;2405411;57;26132;-63
2021/04/23 11:13:23;;;;;;;6.07;3.45;;;19.10;71.10;;;20.99;27.03;95735.00;2405883;57;26658;-63
2021/04/23 11:16:35;;;;;;;6.12;3.50;;;19.90;70.30;;;21.86;25.60;95725.00;2191359;57;26540;-63
2021/04/23 11:19:52;;;;;;;5.35;3.03;;;19.70;68.40;;;22.40;24.69;95725.00;2191263;57;26150;-63
2021/04/23 11:22:54;;;;;;;6.60;3.60;;;20.30;66.90;;;22.21;24.37;95727.00;2185928;57;26186;-63
2021/04/23 11:25:55;;;;;;;6.15;3.42;;;19.40;68.70;;;21.69;25.74;95725.00;2190617;57;26182;-63
2021/04/23 11:29:13;;;;;;;7.15;3.75;;;19.80;76.80;;;22.06;30.37;95726.00;2190591;57;26213;-63
2021/04/23 11:32:18;;;;;;;7.00;3.75;;;19.20;76.90;;;20.81;31.51;95718.00;2190752;57;26183;-63
2021/04/23 11:35:20;;;;;;;8.05;3.30;;;17.80;81.00;;;19.21;35.33;95724.00;2190181;57;26155;-63
2021/04/23 11:38:06;;;;;;;7.78;3.20;;;18.40;82.20;;;20.28;34.15;95718.00;2190931;57;26138;-63